West Point, Ohio
Current Conditions -  °F | °C
As of 7:47 PM on Wednesday 17 Dec 2014 (Local Time) from KBVI Reporting Station
Overcast Overcast  
Wind Chill: 19°   Ceiling: 2200
Heat Index: 30°   Visibility: 10mi
Dew Point: 23°   Wind: 16mph
Humidity: 75%   Direction: 260°W
Pressure: 30.1"   Gusts: 21mph
Location:  40.71°N, 80.7°W
Report Text: KBVI 180047Z 26014G18KT 10SM OVC022 M01/M05 A3010
Loading
Personal Weather Stations






























Interactive Weather Map New forecast layout! Learn more

10-Day Weather Forecast

Advertisements
Track Severe Weather on mobile